Time,TemperatureF,DewpointF,PressureIn,WindDirection,WindDirectionDegrees,WindSpeedMPH,WindSpeedGustMPH,Humidity,HourlyPrecipIn,Conditions,Clouds,dailyrainin,SoftwareType,DateUTC
2017-11-22 00:03:00,62.8,62.8,29.93,NW,308,0.0,0.0,100,0.00,,,0.00,TxWx,2017-11-22 05:03:00,
2017-11-22 00:08:00,62.8,62.8,29.92,NW,308,0.0,0.0,100,0.00,,,0.00,TxWx,2017-11-22 05:08:00,
2017-11-22 00:18:00,62.8,62.8,29.92,NW,308,0.0,0.0,100,0.00,,,0.00,TxWx,2017-11-22 05:18:00,
2017-11-22 00:24:00,62.5,62.5,29.92,NW,308,0.0,0.0,100,0.00,,,0.00,TxWx,2017-11-22 05:24:00,
2017-11-22 00:29:00,62.3,62.3,29.92,East,86,1.7,1.7,100,0.00,,,0.00,TxWx,2017-11-22 05:29:00,
2017-11-22 00:34:00,62.1,62.1,29.92,East,86,0.0,0.0,100,0.00,,,0.00,TxWx,2017-11-22 05:34:00,
2017-11-22 00:49:00,62.1,62.1,29.91,South,174,0.0,0.0,100,0.00,,,0.00,TxWx,2017-11-22 05:49:00,
2017-11-22 00:54:00,62.2,62.2,29.91,South,182,0.0,0.0,100,0.00,,,0.00,TxWx,2017-11-22 05:54:00,
2017-11-22 00:59:00,62.3,62.3,29.91,SSE,168,3.1,3.1,100,0.00,,,0.00,TxWx,2017-11-22 05:59:00,
2017-11-22 01:04:00,62.2,62.2,29.91,South,170,3.1,3.1,100,0.00,,,0.00,TxWx,2017-11-22 06:04:00,
2017-11-22 01:09:00,61.9,61.9,29.91,South,185,2.0,2.0,100,0.00,,,0.00,TxWx,2017-11-22 06:09:00,
2017-11-22 01:14:00,61.8,61.8,29.91,South,180,2.2,2.2,100,0.00,,,0.00,TxWx,2017-11-22 06:14:00,
2017-11-22 01:19:00,61.9,61.9,29.91,SSE,157,0.0,0.0,100,0.00,,,0.00,TxWx,2017-11-22 06:19:00,
2017-11-22 01:24:00,61.9,61.9,29.91,SSE,157,0.0,0.0,100,0.00,,,0.00,TxWx,2017-11-22 06:24:00,
2017-11-22 01:29:00,61.8,61.8,29.91,SSE,157,0.0,0.0,100,0.00,,,0.00,TxWx,2017-11-22 06:29:00,
2017-11-22 01:44:00,61.4,61.4,29.90,SSE,157,0.0,0.0,100,0.00,,,0.00,TxWx,2017-11-22 06:44:00,
2017-11-22 01:49:00,61.3,61.3,29.90,SSE,158,0.0,0.0,100,0.00,,,0.00,TxWx,2017-11-22 06:49:00,
2017-11-22 01:54:00,61.2,61.2,29.90,SSE,166,0.0,0.0,100,0.00,,,0.00,TxWx,2017-11-22 06:54:00,
2017-11-22 01:59:00,61.1,61.1,29.90,SSE,168,0.0,0.0,100,0.00,,,0.00,TxWx,2017-11-22 06:59:00,
2017-11-22 02:04:00,61.1,61.1,29.90,WSW,256,0.0,0.0,100,0.00,,,0.00,TxWx,2017-11-22 07:04:00,
2017-11-22 02:14:00,60.9,60.9,29.90,West,281,0.0,0.0,100,0.00,,,0.00,TxWx,2017-11-22 07:14:00,
2017-11-22 02:19:00,60.9,60.9,29.90,West,281,0.0,0.0,100,0.00,,,0.00,TxWx,2017-11-22 07:19:00,
2017-11-22 02:29:00,61.1,61.1,29.90,West,281,0.0,0.0,100,0.00,,,0.00,TxWx,2017-11-22 07:29:00,
2017-11-22 02:34:00,61.1,61.1,29.90,West,281,0.0,0.0,100,0.00,,,0.00,TxWx,2017-11-22 07:34:00,
2017-11-22 02:39:00,61.1,61.1,29.90,West,281,0.0,0.0,100,0.00,,,0.00,TxWx,2017-11-22 07:39:00,
2017-11-22 02:44:00,61.0,61.0,29.90,West,281,0.0,0.0,100,0.00,,,0.00,TxWx,2017-11-22 07:44:00,
2017-11-22 02:49:00,61.0,61.0,29.90,West,281,0.0,0.0,100,0.00,,,0.00,TxWx,2017-11-22 07:49:00,
2017-11-22 02:54:00,61.1,61.1,29.90,West,281,0.0,0.0,100,0.00,,,0.00,TxWx,2017-11-22 07:54:00,
2017-11-22 03:04:00,60.9,60.9,29.90,WNW,303,0.0,0.0,100,0.00,,,0.00,TxWx,2017-11-22 08:04:00,
2017-11-22 03:14:00,60.8,60.8,29.90,NW,304,0.0,0.0,100,0.00,,,0.00,TxWx,2017-11-22 08:14:00,
2017-11-22 03:29:00,60.4,60.4,29.90,WNW,303,0.0,0.0,100,0.00,,,0.00,TxWx,2017-11-22 08:29:00,
2017-11-22 03:34:00,60.3,60.3,29.90,NW,304,0.0,0.0,100,0.00,,,0.00,TxWx,2017-11-22 08:34:00,
2017-11-22 03:39:00,60.3,60.3,29.90,NNW,342,0.0,0.0,100,0.00,,,0.00,TxWx,2017-11-22 08:39:00,
2017-11-22 03:44:00,60.4,60.4,29.91,NW,320,4.8,5.0,100,0.00,,,0.00,TxWx,2017-11-22 08:44:00,
2017-11-22 03:54:00,60.0,60.0,29.90,NW,310,4.2,4.2,100,0.00,,,0.00,TxWx,2017-11-22 08:54:00,
2017-11-22 04:04:00,60.3,60.3,29.90,NW,315,2.4,2.4,100,0.00,,,0.00,TxWx,2017-11-22 09:04:00,
2017-11-22 04:09:00,60.5,60.5,29.91,NW,305,1.7,2.0,100,0.00,,,0.00,TxWx,2017-11-22 09:09:00,
2017-11-22 04:14:00,60.5,60.5,29.91,NW,323,2.7,2.7,100,0.00,,,0.00,TxWx,2017-11-22 09:14:00,
2017-11-22 04:19:00,60.5,60.5,29.91,NNW,332,4.2,4.2,100,0.00,,,0.00,TxWx,2017-11-22 09:19:00,
2017-11-22 04:24:00,60.5,60.5,29.91,NW,324,3.2,3.2,100,0.00,,,0.00,TxWx,2017-11-22 09:24:00,
2017-11-22 04:29:00,60.5,60.5,29.91,NW,310,3.7,3.7,100,0.00,,,0.00,TxWx,2017-11-22 09:29:00,
2017-11-22 04:34:00,60.4,60.4,29.91,NNW,328,3.5,3.5,100,0.00,,,0.00,TxWx,2017-11-22 09:34:00,
2017-11-22 04:39:00,60.4,60.4,29.91,NW,324,2.4,2.4,100,0.00,,,0.00,TxWx,2017-11-22 09:39:00,
2017-11-22 04:44:00,60.4,60.4,29.91,NNW,341,2.6,2.6,100,0.00,,,0.00,TxWx,2017-11-22 09:44:00,
2017-11-22 04:49:00,60.6,60.6,29.91,North,350,1.1,1.1,100,0.00,,,0.00,TxWx,2017-11-22 09:49:00,
2017-11-22 04:54:00,60.7,60.7,29.91,NNE,20,0.0,0.0,100,0.00,,,0.00,TxWx,2017-11-22 09:54:00,
2017-11-22 04:59:00,60.7,60.7,29.91,NNW,344,0.0,0.0,100,0.00,,,0.00,TxWx,2017-11-22 09:59:00,
2017-11-22 05:04:00,60.8,60.8,29.92,NNW,328,3.1,3.1,100,0.00,,,0.00,TxWx,2017-11-22 10:04:00,
2017-11-22 05:09:00,61.0,61.0,29.92,NNW,346,0.0,0.0,100,0.00,,,0.00,TxWx,2017-11-22 10:09:00,
2017-11-22 05:19:00,61.2,61.2,29.91,NNE,23,0.0,0.0,100,0.00,,,0.00,TxWx,2017-11-22 10:19:00,
2017-11-22 05:24:00,61.2,61.2,29.91,ENE,76,2.7,2.7,100,0.00,,,0.00,TxWx,2017-11-22 10:24:00,
2017-11-22 05:34:00,61.2,61.2,29.90,East,83,0.0,0.0,100,0.00,,,0.00,TxWx,2017-11-22 10:34:00,
2017-11-22 05:39:00,61.2,61.2,29.91,ENE,77,0.0,0.0,100,0.00,,,0.00,TxWx,2017-11-22 10:39:00,
2017-11-22 05:44:00,61.3,61.3,29.90,NW,314,0.0,0.0,100,0.00,,,0.00,TxWx,2017-11-22 10:44:00,
2017-11-22 05:49:00,61.2,61.2,29.90,SSE,161,0.0,0.0,100,0.00,,,0.00,TxWx,2017-11-22 10:49:00,
2017-11-22 05:54:00,61.2,61.2,29.91,WNW,291,3.5,3.5,100,0.00,,,0.00,TxWx,2017-11-22 10:54:00,
2017-11-22 05:59:00,61.3,61.3,29.91,WNW,303,3.2,3.2,100,0.00,,,0.00,TxWx,2017-11-22 10:59:00,
2017-11-22 06:09:00,61.4,61.4,29.91,NW,323,3.1,3.1,100,0.00,,,0.00,TxWx,2017-11-22 11:09:00,
2017-11-22 06:14:00,61.4,61.4,29.91,NW,319,3.7,3.7,100,0.00,,,0.00,TxWx,2017-11-22 11:14:00,
2017-11-22 06:19:00,61.4,61.4,29.92,NW,312,4.6,4.6,100,0.00,,,0.00,TxWx,2017-11-22 11:19:00,
2017-11-22 06:29:00,61.5,61.5,29.92,NW,314,3.7,3.7,100,0.00,,,0.00,TxWx,2017-11-22 11:29:00,
2017-11-22 06:34:00,61.5,61.5,29.92,WNW,301,1.2,1.2,100,0.00,,,0.00,TxWx,2017-11-22 11:34:00,
2017-11-22 06:39:00,61.4,61.4,29.92,NW,315,4.6,4.6,100,0.00,,,0.00,TxWx,2017-11-22 11:39:00,
2017-11-22 06:44:00,61.5,61.5,29.93,NW,326,2.0,2.0,100,0.00,,,0.00,TxWx,2017-11-22 11:44:00,
2017-11-22 06:49:00,61.6,61.6,29.93,NW,304,0.0,0.0,100,0.00,,,0.00,TxWx,2017-11-22 11:49:00,
2017-11-22 06:54:00,61.6,61.6,29.93,NNW,330,3.7,4.0,100,0.00,,,0.00,TxWx,2017-11-22 11:54:00,
2017-11-22 06:59:00,61.6,61.6,29.93,NNW,340,4.4,4.4,100,0.00,,,0.00,TxWx,2017-11-22 11:59:00,
2017-11-22 07:09:00,61.8,61.8,29.93,NNW,330,2.4,2.4,100,0.00,,,0.00,TxWx,2017-11-22 12:09:00,
2017-11-22 07:14:00,62.0,62.0,29.93,NNW,327,1.2,1.2,100,0.00,,,0.00,TxWx,2017-11-22 12:14:00,
2017-11-22 07:39:00,62.7,62.7,29.94,NW,310,2.6,2.6,100,0.00,,,0.00,TxWx,2017-11-22 12:39:00,
2017-11-22 07:44:00,62.9,62.9,29.94,NNW,333,4.6,4.6,100,0.00,,,0.00,TxWx,2017-11-22 12:44:00,
2017-11-22 07:49:00,63.2,63.2,29.94,NNW,337,4.6,5.0,100,0.00,,,0.00,TxWx,2017-11-22 12:49:00,
2017-11-22 08:04:00,63.7,63.7,29.95,NNW,348,8.5,9.0,100,0.00,,,0.00,TxWx,2017-11-22 13:04:00,
2017-11-22 08:09:00,63.9,63.9,29.95,NNW,341,8.1,8.1,100,0.00,,,0.00,TxWx,2017-11-22 13:09:00,
2017-11-22 08:14:00,64.1,64.1,29.95,North,5,4.6,4.6,100,0.00,,,0.00,TxWx,2017-11-22 13:14:00,
2017-11-22 08:24:00,64.4,64.4,29.96,NNW,338,9.4,9.4,100,0.00,,,0.00,TxWx,2017-11-22 13:24:00,
2017-11-22 08:29:00,64.5,64.5,29.96,NNE,23,7.9,7.9,100,0.00,,,0.00,TxWx,2017-11-22 13:29:00,
2017-11-22 08:30:00,64.5,64.5,29.96,NNE,25,6.4,6.4,100,0.00,,,0.00,TxWx,2017-11-22 13:30:00,
2017-11-22 08:40:00,64.6,64.6,29.96,NE,56,10.1,10.1,100,0.00,,,0.00,TxWx,2017-11-22 13:40:00,
2017-11-22 08:45:00,64.9,64.9,29.96,NNE,24,5.0,5.0,100,0.00,,,0.00,TxWx,2017-11-22 13:45:00,
2017-11-22 08:50:00,64.9,64.9,29.96,NNE,12,7.7,7.7,100,0.00,,,0.00,TxWx,2017-11-22 13:50:00,
2017-11-22 08:55:00,65.0,65.0,29.96,WNW,301,7.0,7.0,100,0.00,,,0.00,TxWx,2017-11-22 13:55:00,
2017-11-22 09:10:00,65.3,65.3,29.96,NW,313,5.7,6.0,100,0.00,,,0.00,TxWx,2017-11-22 14:10:00,
2017-11-22 09:11:00,65.5,65.5,29.96,NW,319,1.7,3.0,100,0.00,,,0.00,TxWx,2017-11-22 14:11:00,
2017-11-22 09:16:00,65.6,65.6,29.97,North,7,5.7,5.7,100,0.00,,,0.00,TxWx,2017-11-22 14:16:00,
2017-11-22 09:21:00,65.7,65.7,29.97,NE,44,9.9,9.9,100,0.00,,,0.00,TxWx,2017-11-22 14:21:00,
2017-11-22 09:31:00,65.8,65.8,29.96,North,1,7.9,7.9,100,0.00,,,0.00,TxWx,2017-11-22 14:31:00,
2017-11-22 09:36:00,66.0,66.0,29.96,NNE,33,5.7,7.0,100,0.00,,,0.00,TxWx,2017-11-22 14:36:00,
2017-11-22 09:46:00,66.1,66.1,29.96,NE,35,4.2,4.2,100,0.00,,,0.00,TxWx,2017-11-22 14:46:00,
2017-11-22 09:51:00,66.2,66.2,29.96,NNE,21,0.0,0.0,100,0.00,,,0.00,TxWx,2017-11-22 14:51:00,
2017-11-22 09:56:00,66.3,66.3,29.96,NNE,30,6.1,6.1,100,0.00,,,0.00,TxWx,2017-11-22 14:56:00,
2017-11-22 10:01:00,66.4,66.4,29.96,NNW,343,5.7,5.7,100,0.00,,,0.00,TxWx,2017-11-22 15:01:00,
2017-11-22 10:06:00,66.3,66.3,29.96,North,0,5.5,5.5,100,0.00,,,0.00,TxWx,2017-11-22 15:06:00,
2017-11-22 10:16:00,66.9,66.9,29.96,NNW,329,9.6,10.0,100,0.00,,,0.00,TxWx,2017-11-22 15:16:00,
2017-11-22 10:26:00,66.9,66.9,29.95,North,1,3.5,4.0,100,0.00,,,0.00,TxWx,2017-11-22 15:26:00,
2017-11-22 10:31:00,67.8,67.8,29.95,NE,52,0.0,0.0,100,0.00,,,0.00,TxWx,2017-11-22 15:31:00,
2017-11-22 10:36:00,67.8,67.8,29.95,NW,312,8.5,9.0,100,0.00,,,0.00,TxWx,2017-11-22 15:36:00,
2017-11-22 10:41:00,68.2,68.2,29.95,WNW,300,7.0,7.0,100,0.00,,,0.00,TxWx,2017-11-22 15:41:00,
2017-11-22 10:46:00,69.3,69.3,29.95,West,275,5.0,5.0,100,0.00,,,0.00,TxWx,2017-11-22 15:46:00,
2017-11-22 10:51:00,69.1,69.1,29.95,NNW,338,6.6,7.0,100,0.00,,,0.00,TxWx,2017-11-22 15:51:00,
2017-11-22 10:56:00,69.5,69.5,29.95,NNW,336,2.0,2.0,100,0.00,,,0.00,TxWx,2017-11-22 15:56:00,
2017-11-22 11:01:00,70.2,70.2,29.95,NNE,17,6.4,6.4,100,0.00,,,0.00,TxWx,2017-11-22 16:01:00,
2017-11-22 11:06:00,71.3,71.3,29.95,NW,315,4.4,4.4,100,0.00,,,0.00,TxWx,2017-11-22 16:06:00,
2017-11-22 11:11:00,71.4,71.4,29.95,West,266,0.0,0.0,100,0.00,,,0.00,TxWx,2017-11-22 16:11:00,
2017-11-22 11:16:00,72.2,72.2,29.95,NNE,21,4.8,5.0,100,0.00,,,0.00,TxWx,2017-11-22 16:16:00,
2017-11-22 11:21:00,72.9,72.9,29.95,NW,306,9.4,9.4,100,0.00,,,0.00,TxWx,2017-11-22 16:21:00,
2017-11-22 11:26:00,73.2,73.2,29.95,NNW,345,8.1,8.1,100,0.00,,,0.00,TxWx,2017-11-22 16:26:00,
2017-11-22 11:31:00,73.5,73.5,29.94,NNW,345,2.2,2.2,100,0.00,,,0.00,TxWx,2017-11-22 16:31:00,
2017-11-22 11:36:00,74.1,74.1,29.94,West,281,10.1,11.0,100,0.00,,,0.00,TxWx,2017-11-22 16:36:00,
2017-11-22 11:41:00,74.7,74.7,29.94,NW,314,5.9,6.0,100,0.00,,,0.00,TxWx,2017-11-22 16:41:00,
2017-11-22 11:51:00,75.0,73.3,29.94,NNW,345,9.2,9.2,94,0.00,,,0.00,TxWx,2017-11-22 16:51:00,
2017-11-22 11:56:00,75.4,72.8,29.93,NNW,327,11.2,11.2,91,0.00,,,0.00,TxWx,2017-11-22 16:56:00,
2017-11-22 12:01:00,75.7,72.3,29.93,NW,310,8.8,9.0,89,0.00,,,0.00,TxWx,2017-11-22 17:01:00,
2017-11-22 12:06:00,75.9,70.9,29.93,NNW,341,7.5,8.0,84,0.00,,,0.00,TxWx,2017-11-22 17:06:00,
2017-11-22 12:11:00,76.1,70.4,29.92,NW,324,10.5,11.0,82,0.00,,,0.00,TxWx,2017-11-22 17:11:00,
2017-11-22 12:16:00,76.4,69.0,29.92,North,358,12.3,12.3,77,0.00,,,0.00,TxWx,2017-11-22 17:16:00,
2017-11-22 12:21:00,77.1,70.2,29.92,NW,320,11.0,11.0,79,0.00,,,0.00,TxWx,2017-11-22 17:21:00,
2017-11-22 12:26:00,76.9,68.6,29.92,NNW,328,11.0,11.0,75,0.00,,,0.00,TxWx,2017-11-22 17:26:00,
2017-11-22 12:36:00,77.4,68.8,29.92,NNW,344,11.0,11.0,74,0.00,,,0.00,TxWx,2017-11-22 17:36:00,
2017-11-22 12:51:00,77.5,67.7,29.91,NNW,334,11.2,11.2,71,0.00,,,0.00,TxWx,2017-11-22 17:51:00,
2017-11-22 13:01:00,77.7,68.3,29.91,NNW,335,10.3,11.0,72,0.00,,,0.00,TxWx,2017-11-22 18:01:00,
2017-11-22 13:06:00,77.8,67.7,29.91,NW,307,12.1,12.1,71,0.00,,,0.00,TxWx,2017-11-22 18:06:00,
2017-11-22 13:11:00,77.9,68.1,29.91,WNW,295,8.1,8.1,71,0.00,,,0.00,TxWx,2017-11-22 18:11:00,
2017-11-22 13:16:00,78.0,68.3,29.90,North,5,5.9,6.0,72,0.00,,,0.00,TxWx,2017-11-22 18:16:00,
2017-11-22 13:21:00,77.9,68.2,29.90,NNE,22,11.4,12.0,72,0.00,,,0.00,TxWx,2017-11-22 18:21:00,
2017-11-22 13:26:00,77.6,67.9,29.90,NNW,335,9.2,9.2,72,0.00,,,0.00,TxWx,2017-11-22 18:26:00,
2017-11-22 13:31:00,77.3,67.8,29.90,NNW,342,4.6,0.0,72,0.00,,,0.00,TxWx,2017-11-22 18:31:00,
2017-11-22 13:46:00,77.6,66.8,29.90,NNE,32,5.9,0.0,69,0.00,,,0.00,TxWx,2017-11-22 18:46:00,
2017-11-22 13:51:00,77.6,66.4,29.90,NW,307,6.4,6.4,68,0.00,,,0.00,TxWx,2017-11-22 18:51:00,
2017-11-22 13:56:00,78.2,67.1,29.90,North,357,4.6,4.6,68,0.00,,,0.00,TxWx,2017-11-22 18:56:00,
2017-11-22 14:06:00,78.8,66.8,29.90,NW,318,4.6,0.0,66,0.00,,,0.00,TxWx,2017-11-22 19:06:00,
2017-11-22 14:11:00,78.8,66.3,29.90,NNW,328,10.3,11.0,65,0.00,,,0.00,TxWx,2017-11-22 19:11:00,
2017-11-22 14:21:00,78.0,66.4,29.90,NNW,339,2.0,2.0,67,0.00,,,0.00,TxWx,2017-11-22 19:21:00,
2017-11-22 14:31:00,78.9,69.3,29.90,ENE,61,12.1,12.1,72,0.00,,,0.00,TxWx,2017-11-22 19:31:00,
2017-11-22 14:36:00,77.3,68.6,29.90,NE,46,11.2,11.2,74,0.00,,,0.00,TxWx,2017-11-22 19:36:00,
2017-11-22 14:41:00,76.0,68.1,29.90,NNE,26,10.1,12.0,76,0.00,,,0.00,TxWx,2017-11-22 19:41:00,
2017-11-22 14:46:00,75.3,68.5,29.90,NNE,33,11.8,12.0,79,0.00,,,0.00,TxWx,2017-11-22 19:46:00,
2017-11-22 14:51:00,74.8,68.4,29.89,NNE,23,12.1,12.1,80,0.00,,,0.00,TxWx,2017-11-22 19:51:00,
2017-11-22 14:56:00,74.7,68.8,29.90,North,357,11.0,11.0,81,0.00,,,0.00,TxWx,2017-11-22 19:56:00,
2017-11-22 15:06:00,75.2,69.1,29.90,NNE,17,11.4,11.4,81,0.00,,,0.00,TxWx,2017-11-22 20:06:00,
2017-11-22 15:11:00,75.2,69.1,29.90,NNE,31,11.6,11.6,81,0.00,,,0.00,TxWx,2017-11-22 20:11:00,
2017-11-22 15:16:00,75.2,68.9,29.90,NNE,16,9.9,11.0,80,0.00,,,0.00,TxWx,2017-11-22 20:16:00,
2017-11-22 15:21:00,75.1,68.6,29.90,North,1,10.5,10.5,80,0.00,,,0.00,TxWx,2017-11-22 20:21:00,
2017-11-22 15:41:00,75.0,67.8,29.90,NNE,22,9.9,10.0,78,0.00,,,0.00,TxWx,2017-11-22 20:41:00,
2017-11-22 15:46:00,74.8,67.6,29.90,NE,56,11.4,11.4,78,0.00,,,0.00,TxWx,2017-11-22 20:46:00,
2017-11-22 15:51:00,74.7,67.8,29.91,NE,53,10.5,11.0,79,0.00,,,0.00,TxWx,2017-11-22 20:51:00,
2017-11-22 15:56:00,74.6,67.7,29.91,ENE,60,10.7,12.0,79,0.00,,,0.00,TxWx,2017-11-22 20:56:00,
2017-11-22 16:01:00,74.3,67.8,29.91,NE,48,11.4,11.4,80,0.00,,,0.00,TxWx,2017-11-22 21:01:00,
2017-11-22 16:06:00,74.0,67.3,29.91,NE,36,11.8,11.8,79,0.00,,,0.00,TxWx,2017-11-22 21:06:00,
2017-11-22 16:16:00,73.8,66.8,29.91,NE,45,9.4,10.0,78,0.00,,,0.00,TxWx,2017-11-22 21:16:00,
2017-11-22 16:21:00,73.6,66.8,29.91,NNE,12,11.2,11.2,79,0.00,,,0.00,TxWx,2017-11-22 21:21:00,
2017-11-22 16:26:00,73.4,66.9,29.91,NNE,25,9.0,11.0,80,0.00,,,0.00,TxWx,2017-11-22 21:26:00,
2017-11-22 16:31:00,73.2,66.8,29.91,NNE,28,10.3,10.3,80,0.00,,,0.00,TxWx,2017-11-22 21:31:00,
2017-11-22 16:36:00,73.1,67.0,29.91,NNE,32,10.1,10.1,81,0.00,,,0.00,TxWx,2017-11-22 21:36:00,
2017-11-22 16:41:00,72.8,66.9,29.91,NE,37,10.3,0.0,81,0.00,,,0.00,TxWx,2017-11-22 21:41:00,
2017-11-22 16:46:00,72.6,67.2,29.91,NE,46,11.2,0.0,83,0.00,,,0.00,TxWx,2017-11-22 21:46:00,
2017-11-22 16:51:00,72.2,67.2,29.90,NE,45,10.3,11.0,84,0.00,,,0.00,TxWx,2017-11-22 21:51:00,
2017-11-22 17:06:00,71.4,67.1,29.91,NE,43,5.9,7.0,86,0.00,,,0.00,TxWx,2017-11-22 22:06:00,
2017-11-22 17:16:00,70.8,67.0,29.92,NNE,13,7.0,7.0,87,0.00,,,0.00,TxWx,2017-11-22 22:16:00,
2017-11-22 17:21:00,70.6,67.1,29.92,North,5,4.6,4.6,88,0.00,,,0.00,TxWx,2017-11-22 22:21:00,
2017-11-22 17:26:00,70.2,67.1,29.92,NNE,33,6.4,6.4,89,0.00,,,0.00,TxWx,2017-11-22 22:26:00,
2017-11-22 17:31:00,69.8,67.1,29.92,NNE,33,4.8,5.0,90,0.00,,,0.00,TxWx,2017-11-22 22:31:00,
2017-11-22 17:36:00,69.7,67.2,29.92,NE,53,5.5,0.0,91,0.00,,,0.00,TxWx,2017-11-22 22:36:00,
2017-11-22 17:41:00,69.3,67.1,29.92,NNE,28,5.3,5.3,93,0.00,,,0.00,TxWx,2017-11-22 22:41:00,
2017-11-22 17:46:00,69.1,67.3,29.92,NNE,31,4.6,5.0,94,0.00,,,0.00,TxWx,2017-11-22 22:46:00,
2017-11-22 17:51:00,68.9,67.3,29.93,NNE,23,4.4,5.0,94,0.00,,,0.00,TxWx,2017-11-22 22:51:00,
2017-11-22 17:56:00,68.9,67.5,29.93,NNE,26,3.5,3.5,95,0.00,,,0.00,TxWx,2017-11-22 22:56:00,
2017-11-22 18:01:00,68.8,67.6,29.93,NE,43,3.7,0.0,95,0.00,,,0.00,TxWx,2017-11-22 23:01:00,
2017-11-22 18:11:00,68.5,67.4,29.94,NNE,13,3.7,3.7,96,0.00,,,0.00,TxWx,2017-11-22 23:11:00,
2017-11-22 18:16:00,68.2,67.4,29.94,North,11,7.5,7.5,97,0.00,,,0.00,TxWx,2017-11-22 23:16:00,
2017-11-22 18:21:00,68.2,67.5,29.94,North,9,4.2,0.0,97,0.00,,,0.00,TxWx,2017-11-22 23:21:00,
2017-11-22 18:26:00,68.1,67.6,29.94,North,9,5.3,5.3,98,0.00,,,0.00,TxWx,2017-11-22 23:26:00,
2017-11-22 18:31:00,68.0,67.6,29.94,North,10,4.2,5.0,98,0.00,,,0.00,TxWx,2017-11-22 23:31:00,
2017-11-22 18:41:00,67.7,67.6,29.94,North,5,5.3,5.3,99,0.00,,,0.00,TxWx,2017-11-22 23:41:00,
2017-11-22 18:46:00,67.6,67.6,29.94,NNE,14,6.1,6.1,100,0.00,,,0.00,TxWx,2017-11-22 23:46:00,
2017-11-22 18:56:00,67.4,67.4,29.94,NNE,15,6.4,7.0,100,0.00,,,0.00,TxWx,2017-11-22 23:56:00,
2017-11-22 19:06:00,67.1,67.1,29.94,NNE,27,6.6,7.0,100,0.00,,,0.00,TxWx,2017-11-23 00:06:00,
2017-11-22 19:11:00,67.1,67.1,29.95,NNE,28,3.9,4.0,100,0.00,,,0.00,TxWx,2017-11-23 00:11:00,
2017-11-22 19:16:00,67.1,67.1,29.95,North,359,2.0,2.0,100,0.00,,,0.00,TxWx,2017-11-23 00:16:00,
2017-11-22 19:21:00,67.0,67.0,29.95,NNW,340,2.2,2.2,100,0.00,,,0.00,TxWx,2017-11-23 00:21:00,
2017-11-22 19:51:00,66.4,66.4,29.95,NNW,345,0.0,1.0,100,0.00,,,0.00,TxWx,2017-11-23 00:51:00,
2017-11-22 19:56:00,66.3,66.3,29.95,NNW,327,0.0,0.0,100,0.00,,,0.00,TxWx,2017-11-23 00:56:00,
2017-11-22 20:06:00,66.0,66.0,29.96,NW,308,1.7,0.0,100,0.00,,,0.00,TxWx,2017-11-23 01:06:00,
2017-11-22 20:11:00,66.0,66.0,29.95,NW,305,0.0,0.0,100,0.00,,,0.00,TxWx,2017-11-23 01:11:00,
2017-11-22 20:21:00,65.8,65.8,29.95,WNW,291,0.0,0.0,100,0.00,,,0.00,TxWx,2017-11-23 01:21:00,
2017-11-22 20:26:00,65.6,65.6,29.95,NW,307,0.0,0.0,100,0.00,,,0.00,TxWx,2017-11-23 01:26:00,
2017-11-22 20:31:00,65.6,65.6,29.95,NNW,334,2.6,2.6,100,0.00,,,0.00,TxWx,2017-11-23 01:31:00,
2017-11-22 20:46:00,65.5,65.5,29.95,NNE,13,5.5,6.0,100,0.00,,,0.00,TxWx,2017-11-23 01:46:00,
2017-11-22 20:52:00,65.5,65.5,29.95,NNE,18,0.4,0.0,100,0.00,,,0.00,TxWx,2017-11-23 01:52:00,
2017-11-22 20:57:00,65.5,65.5,29.95,North,4,2.4,2.4,100,0.00,,,0.00,TxWx,2017-11-23 01:57:00,
2017-11-22 21:02:00,65.5,65.5,29.95,WNW,302,1.5,1.5,100,0.00,,,0.00,TxWx,2017-11-23 02:02:00,
2017-11-22 21:07:00,65.5,65.5,29.96,NW,317,3.7,3.7,100,0.00,,,0.00,TxWx,2017-11-23 02:07:00,
2017-11-22 21:12:00,65.4,65.4,29.96,North,6,1.1,1.1,100,0.00,,,0.00,TxWx,2017-11-23 02:12:00,
2017-11-22 21:17:00,65.4,65.4,29.95,NNE,33,4.8,0.0,100,0.00,,,0.00,TxWx,2017-11-23 02:17:00,
2017-11-22 21:22:00,65.5,65.5,29.95,NNE,28,2.7,2.7,100,0.00,,,0.00,TxWx,2017-11-23 02:22:00,
2017-11-22 21:32:00,65.5,65.5,29.95,NNE,20,2.7,2.7,100,0.00,,,0.00,TxWx,2017-11-23 02:32:00,
2017-11-22 21:37:00,65.4,65.4,29.95,NNE,31,2.2,2.2,100,0.00,,,0.00,TxWx,2017-11-23 02:37:00,
2017-11-22 21:42:00,65.4,65.4,29.95,North,0,2.0,2.0,100,0.00,,,0.00,TxWx,2017-11-23 02:42:00,
2017-11-22 21:47:00,65.4,65.4,29.96,NNE,15,0.0,0.0,100,0.00,,,0.00,TxWx,2017-11-23 02:47:00,
2017-11-22 21:52:00,65.4,65.4,29.95,North,355,1.5,1.5,100,0.00,,,0.00,TxWx,2017-11-23 02:52:00,
2017-11-22 21:57:00,65.5,65.5,29.95,North,356,0.0,0.0,100,0.00,,,0.00,TxWx,2017-11-23 02:57:00,
2017-11-22 22:02:00,65.5,65.5,29.96,NW,325,0.0,0.0,100,0.00,,,0.00,TxWx,2017-11-23 03:02:00,
2017-11-22 22:07:00,65.5,65.5,29.96,North,358,0.0,0.0,100,0.00,,,0.00,TxWx,2017-11-23 03:07:00,
2017-11-22 22:20:00,65.4,65.4,29.96,NW,325,0.0,0.0,100,0.00,,,0.00,TxWx,2017-11-23 03:20:00,
2017-11-22 22:21:00,65.5,65.5,29.96,NW,313,1.1,1.1,100,0.00,,,0.00,TxWx,2017-11-23 03:21:00,
2017-11-22 22:25:00,65.5,65.5,29.96,NW,309,0.0,0.0,100,0.00,,,0.00,TxWx,2017-11-23 03:25:00,
2017-11-22 22:26:00,65.4,65.4,29.96,NW,305,0.0,0.0,100,0.00,,,0.00,TxWx,2017-11-23 03:26:00,
2017-11-22 22:31:00,65.4,65.4,29.96,NNW,329,0.0,0.0,100,0.00,,,0.00,TxWx,2017-11-23 03:31:00,
2017-11-22 22:36:00,65.4,65.4,29.96,NNW,348,0.9,1.0,100,0.00,,,0.00,TxWx,2017-11-23 03:36:00,
2017-11-22 22:46:00,65.4,65.4,29.95,NNW,337,1.2,1.2,100,0.00,,,0.00,TxWx,2017-11-23 03:46:00,
2017-11-22 22:51:00,65.4,65.4,29.95,NW,315,0.0,0.0,100,0.00,,,0.00,TxWx,2017-11-23 03:51:00,
2017-11-22 22:56:00,65.3,65.3,29.95,NW,326,3.7,3.7,100,0.00,,,0.00,TxWx,2017-11-23 03:56:00,
2017-11-22 23:01:00,65.1,65.1,29.95,NW,316,3.9,3.9,100,0.00,,,0.00,TxWx,2017-11-23 04:01:00,
2017-11-22 23:16:00,65.1,65.1,29.95,NNW,342,2.0,2.0,100,0.00,,,0.00,TxWx,2017-11-23 04:16:00,
2017-11-22 23:21:00,65.2,65.2,29.95,North,359,1.2,1.2,100,0.00,,,0.00,TxWx,2017-11-23 04:21:00,
2017-11-22 23:26:00,65.1,65.1,29.95,North,7,2.6,2.6,100,0.00,,,0.00,TxWx,2017-11-23 04:26:00,